메인 페이지
METAR-TAF:

METAR-TAF

공항 :

블랜타이어, 말라위

위도: 15-41S, 경도: 034-58E, 고도: 766m

현재 날씨관측

예보는 13 시간 25분 전, 14:00시(UTC)에 발표되었습니다.
서남서7kt
온도 26°C
습도 70%
기압 1010 hPa
시정 10km 이상
고도 2500ft 상공 구름 조금, 적란운.
고도 3000ft 상공 구름 보통

METAR: FWCL 041400Z 25007KT 9999 FEW025CB SCT030 26/20 Q1010 NOSIG

시각: 05:25 (03:25 UTC)

예보

예보는 17 시간 55분 전, 09:30시(UTC)에 발표되었습니다.
예보 대상 시간: 04일 12시부터 05일 18시까지 (UTC)
남남서8kt
시정 10km 이상
고도 2500ft 상공 구름 조금
고도 3000ft 상공 구름 많음
확률 30% :
일시적
04일 12시부터 04일 16시까지 (UTC)
시정: 8000m
약한소나기
전환 중
04일 18시부터 04일 20시까지 (UTC)
남남서6kt
시정 10km 이상
고도 2500ft 상공 구름 조금, 적란운.
고도 8000ft 상공 구름 보통
전환 중
05일 04시부터 05일 06시까지 (UTC)
6kt
고도 800ft 상공 구름 조금
고도 2000ft 상공 구름 보통
확률 30% :
일시적
05일 08시부터 05일 16시까지 (UTC)
시정: 6000m
고도 2500ft 상공 구름 조금, 적란운.
고도 3000ft 상공 구름 많음
약한비

TAF: FWCL 040930Z 0412/0518 20008KT 9999 FEW025 BKN030 PROB30 TEMPO 0412/0416 8000 -SHRA BECMG 0418/0420 21006KT 9999 FEW025CB SCT080 BECMG 0504/0506 19006KT FEW008 SCT020 PROB30 TEMPO 0508/0516 6000 -RA FEW025CB BKN030

4,000개 이상의 공항 관측 자료 및 예보 (METAR 및 TAF 보고).

지도상에서 검색 가능한 기상관측소가 노란 점과 빨간 점으로 표시되어 있습니다.

기상관측소 명을 보려면 표시 위로 마우스를 이동하세요.

날씨 관측과 예보를 보려면 클릭하세요.

지도 변경 : 확대하려면 엑스 표시가 있는 녹색 버튼, 축소하려면 빼기 표시가 있는 녹색 버튼, 다음 페이지의 지도를 보려면 녹색 화살표를 클릭하세요.


METAR-TAF: